createdAt,value
2022-10-20T00:00:23.797Z,50.54
2022-10-20T00:02:59.797Z,51.91
2022-10-20T00:05:30.916Z,50.70
2022-10-20T00:08:03.391Z,50.13
2022-10-20T00:10:35.994Z,50.80
2022-10-20T00:13:14.184Z,51.59
2022-10-20T00:15:50.211Z,51.86
2022-10-20T00:18:37.526Z,51.30
2022-10-20T00:21:17.230Z,50.97
2022-10-20T00:23:48.974Z,51.26
2022-10-20T00:26:26.420Z,50.69
2022-10-20T00:29:04.168Z,51.63
2022-10-20T00:31:35.403Z,51.43
2022-10-20T00:34:07.589Z,51.65
2022-10-20T00:36:45.306Z,52.38
2022-10-20T00:39:18.768Z,53.07
2022-10-20T00:41:50.151Z,54.16
2022-10-20T00:44:49.588Z,52.36
2022-10-20T00:50:20.439Z,55.08
2022-10-20T00:52:52.624Z,53.53
2022-10-20T00:55:31.041Z,53.80
2022-10-20T00:58:01.559Z,55.58
2022-10-20T01:00:31.898Z,55.57
2022-10-20T01:03:02.676Z,55.15
2022-10-20T01:05:35.320Z,55.28
2022-10-20T01:08:04.770Z,54.80
2022-10-20T01:10:57.439Z,55.72
2022-10-20T01:13:54.894Z,54.87
2022-10-20T01:16:43.153Z,56.05
2022-10-20T01:19:34.433Z,56.63
2022-10-20T01:22:38.261Z,56.61
2022-10-20T01:25:21.787Z,56.50
2022-10-20T01:28:15.851Z,56.33
2022-10-20T01:30:48.979Z,57.24
2022-10-20T01:33:33.822Z,57.60
2022-10-20T01:36:11.149Z,56.85
2022-10-20T01:38:44.876Z,57.04
2022-10-20T01:41:29.339Z,56.78
2022-10-20T01:44:04.221Z,55.61
2022-10-20T01:46:34.312Z,55.76
2022-10-20T01:49:05.791Z,56.47
2022-10-20T01:51:34.975Z,57.00
2022-10-20T01:54:08.300Z,57.07
2022-10-20T01:57:03.859Z,55.75
2022-10-20T01:59:44.309Z,56.46
2022-10-20T02:02:57.073Z,56.48
2022-10-20T02:06:09.157Z,57.36
2022-10-20T02:08:49.973Z,57.06
2022-10-20T02:11:20.542Z,57.00
2022-10-20T02:13:50.987Z,57.11
2022-10-20T02:16:32.706Z,57.48
2022-10-20T02:19:11.707Z,57.88
2022-10-20T02:21:39.426Z,57.15
2022-10-20T02:24:09.571Z,56.79
2022-10-20T02:26:39.192Z,57.00
2022-10-20T02:29:14.847Z,55.94
2022-10-20T02:31:44.670Z,55.39
2022-10-20T02:34:15.391Z,55.23
2022-10-20T02:36:45.537Z,54.86
2022-10-20T02:39:22.005Z,56.30
2022-10-20T02:41:49.951Z,56.33
2022-10-20T02:44:19.268Z,57.23
2022-10-20T02:46:47.420Z,55.90
2022-10-20T02:49:19.291Z,55.91
2022-10-20T02:51:51.818Z,55.80
2022-10-20T02:54:25.077Z,55.66
2022-10-20T02:56:53.160Z,55.75
2022-10-20T02:59:22.388Z,57.03
2022-10-20T03:01:52.415Z,56.79
2022-10-20T03:04:21.199Z,56.96
2022-10-20T03:06:49.748Z,57.20
2022-10-20T03:09:21.502Z,56.93
2022-10-20T03:11:54.411Z,58.21
2022-10-20T03:14:30.139Z,58.57
2022-10-20T03:16:58.066Z,58.40
2022-10-20T03:19:25.979Z,57.15
2022-10-20T03:21:53.953Z,56.29
2022-10-20T03:24:23.550Z,57.07
2022-10-20T03:26:51.856Z,57.20
2022-10-20T03:29:21.414Z,56.01
2022-10-20T03:34:23.151Z,56.71
2022-10-20T03:36:51.020Z,56.45
2022-10-20T03:39:19.559Z,55.80
2022-10-20T03:41:49.885Z,54.44
2022-10-20T03:44:18.215Z,53.92
2022-10-20T03:46:46.763Z,54.05
2022-10-20T03:49:16.713Z,53.67
2022-10-20T03:51:45.035Z,53.39
2022-10-20T03:54:13.809Z,53.92
2022-10-20T03:56:42.375Z,53.60
2022-10-20T03:59:12.905Z,54.40
2022-10-20T04:01:44.307Z,53.94
2022-10-20T04:04:15.015Z,55.18
2022-10-20T04:06:44.609Z,55.46
2022-10-20T04:09:12.878Z,55.66
2022-10-20T04:11:40.988Z,55.35
2022-10-20T04:14:10.703Z,55.29
2022-10-20T04:16:39.629Z,54.09
2022-10-20T04:19:14.105Z,54.56
2022-10-20T04:21:41.781Z,54.10
2022-10-20T04:24:11.159Z,55.22
2022-10-20T04:26:39.124Z,54.67
2022-10-20T04:29:07.187Z,55.60
2022-10-20T04:31:37.078Z,56.04
2022-10-20T04:34:05.362Z,56.49
2022-10-20T04:36:36.411Z,56.54
2022-10-20T04:39:08.904Z,56.05
2022-10-20T04:41:39.263Z,55.93
2022-10-20T04:44:07.842Z,55.39
2022-10-20T04:46:37.829Z,55.63
2022-10-20T04:49:09.855Z,55.90
2022-10-20T04:51:37.937Z,56.27
2022-10-20T04:56:35.133Z,56.07
2022-10-20T04:59:09.639Z,55.74
2022-10-20T05:01:41.612Z,55.77
2022-10-20T05:04:10.960Z,54.87
2022-10-20T05:06:40.150Z,54.82
2022-10-20T05:09:14.468Z,55.59
2022-10-20T05:11:42.147Z,55.94
2022-10-20T05:14:13.482Z,56.02
2022-10-20T05:16:42.494Z,56.20
2022-10-20T05:19:13.140Z,55.29
2022-10-20T05:24:16.798Z,55.42
2022-10-20T05:26:53.918Z,55.12
2022-10-20T05:29:21.773Z,55.76
2022-10-20T05:31:49.896Z,55.92
2022-10-20T05:34:18.088Z,55.21
2022-10-20T05:36:45.880Z,55.39
2022-10-20T05:39:13.893Z,55.67
2022-10-20T05:41:42.319Z,55.66
2022-10-20T05:44:12.078Z,55.16
2022-10-20T05:46:42.688Z,54.84
2022-10-20T05:49:16.901Z,54.24
2022-10-20T05:51:46.246Z,53.74
2022-10-20T05:54:14.211Z,54.01
2022-10-20T05:56:42.492Z,54.30
2022-10-20T05:59:13.143Z,54.24
2022-10-20T06:01:59.150Z,54.40
2022-10-20T06:04:30.548Z,54.03
2022-10-20T06:06:59.005Z,53.44
2022-10-20T06:09:27.122Z,52.95
2022-10-20T06:11:54.685Z,53.47
2022-10-20T06:14:22.690Z,53.28
2022-10-20T06:16:52.086Z,54.22
2022-10-20T06:19:22.169Z,54.33
2022-10-20T06:21:50.291Z,54.86
2022-10-20T06:24:19.092Z,55.57
2022-10-20T06:26:47.440Z,54.90
2022-10-20T06:29:17.924Z,54.63
2022-10-20T06:31:51.126Z,54.42
2022-10-20T06:34:22.040Z,54.28
2022-10-20T06:36:49.871Z,54.09
2022-10-20T06:39:19.777Z,55.08
2022-10-20T06:41:52.919Z,54.74
2022-10-20T06:44:23.334Z,54.05
2022-10-20T06:46:52.682Z,53.80
2022-10-20T06:49:21.482Z,53.19
2022-10-20T06:51:49.497Z,52.85
2022-10-20T06:54:18.607Z,52.55
2022-10-20T06:56:47.018Z,53.01
2022-10-20T06:59:15.068Z,53.32
2022-10-20T07:01:43.767Z,53.08
2022-10-20T07:04:15.302Z,53.22
2022-10-20T07:06:45.964Z,52.91
2022-10-20T07:09:18.968Z,52.06
2022-10-20T07:11:51.386Z,52.13
2022-10-20T07:14:20.610Z,52.78
2022-10-20T07:16:49.347Z,51.61
2022-10-20T07:19:17.088Z,50.94
2022-10-20T07:21:45.916Z,50.52
2022-10-20T07:24:15.632Z,50.23
2022-10-20T07:26:43.999Z,50.39
2022-10-20T07:29:13.201Z,50.89
2022-10-20T07:31:43.988Z,50.12
2022-10-20T07:34:25.030Z,50.23
2022-10-20T07:36:54.222Z,49.18
2022-10-20T07:39:22.236Z,49.19
2022-10-20T07:41:50.875Z,48.60
2022-10-20T07:44:18.998Z,49.05
2022-10-20T07:46:46.757Z,50.01
2022-10-20T07:52:02.815Z,48.65
2022-10-20T07:54:31.901Z,48.26
2022-10-20T07:57:00.179Z,48.25
2022-10-20T07:59:29.737Z,48.87
2022-10-20T08:01:59.890Z,49.66
2022-10-20T08:04:31.640Z,48.69
2022-10-20T08:07:00.499Z,48.99
2022-10-20T08:09:28.539Z,47.41
2022-10-20T08:11:56.488Z,46.72
2022-10-20T08:14:27.369Z,46.85
2022-10-20T08:16:56.975Z,47.12
2022-10-20T08:19:26.091Z,46.44
2022-10-20T08:21:53.654Z,46.91
2022-10-20T08:24:21.930Z,46.72
2022-10-20T08:26:49.800Z,46.68
2022-10-20T08:29:17.798Z,45.91
2022-10-20T08:31:46.325Z,45.15
2022-10-20T08:34:14.444Z,45.20
2022-10-20T08:36:42.544Z,44.71
2022-10-20T08:39:11.125Z,44.93
2022-10-20T08:42:06.447Z,43.96
2022-10-20T08:44:35.123Z,44.82
2022-10-20T08:47:06.182Z,43.69
2022-10-20T08:49:35.677Z,43.71
2022-10-20T08:52:03.655Z,44.05
2022-10-20T08:54:34.673Z,43.35
2022-10-20T08:57:04.287Z,42.98
2022-10-20T08:59:39.637Z,43.20
2022-10-20T09:02:16.643Z,42.72
2022-10-20T09:04:49.934Z,42.31
2022-10-20T09:07:50.182Z,42.08
2022-10-20T09:10:25.090Z,41.31
2022-10-20T09:12:54.159Z,40.80
2022-10-20T09:15:23.038Z,40.19
2022-10-20T09:17:56.223Z,41.33
2022-10-20T09:20:29.992Z,40.51
2022-10-20T09:23:01.336Z,40.76
2022-10-20T09:25:33.540Z,39.70
2022-10-20T09:28:01.883Z,39.29
2022-10-20T09:30:29.712Z,38.37
2022-10-20T09:32:58.062Z,37.95
2022-10-20T09:35:30.402Z,38.54
2022-10-20T09:38:10.871Z,38.97
2022-10-20T09:40:54.181Z,37.66
2022-10-20T09:43:22.316Z,37.43
2022-10-20T09:45:55.222Z,37.97
2022-10-20T09:48:34.513Z,38.13
2022-10-20T09:51:02.723Z,37.88
2022-10-20T09:53:36.493Z,37.50
2022-10-20T09:56:05.084Z,36.86
2022-10-20T09:58:38.095Z,37.42
2022-10-20T10:01:24.428Z,37.15
2022-10-20T10:03:58.687Z,37.03
2022-10-20T10:06:51.795Z,37.77
2022-10-20T10:09:28.367Z,37.28
2022-10-20T10:12:07.117Z,36.86
2022-10-20T10:14:39.082Z,36.56
2022-10-20T10:17:06.837Z,35.68
2022-10-20T10:19:35.467Z,35.45
2022-10-20T10:22:04.393Z,34.98
2022-10-20T10:24:42.678Z,34.14
2022-10-20T10:27:20.494Z,35.22
2022-10-20T10:29:49.000Z,35.25
2022-10-20T10:32:16.896Z,36.19
2022-10-20T10:35:04.055Z,36.21
2022-10-20T10:37:34.989Z,34.69
2022-10-20T10:40:22.457Z,34.45
2022-10-20T10:43:24.800Z,35.65
2022-10-20T10:45:57.852Z,34.66
2022-10-20T10:48:38.953Z,35.14
2022-10-20T10:51:21.210Z,34.94
2022-10-20T10:54:18.013Z,33.76
2022-10-20T10:56:48.390Z,34.11
2022-10-20T10:59:24.274Z,34.09
2022-10-20T11:02:34.293Z,33.99
2022-10-20T11:05:34.161Z,33.41
2022-10-20T11:08:02.716Z,33.51
2022-10-20T11:10:43.584Z,34.00
2022-10-20T11:13:30.584Z,33.54
2022-10-20T11:16:16.579Z,32.91
2022-10-20T11:18:58.455Z,32.10
2022-10-20T11:21:36.290Z,32.99
2022-10-20T11:24:26.029Z,32.41
2022-10-20T11:27:03.522Z,32.60
2022-10-20T11:29:53.821Z,31.73
2022-10-20T11:32:46.738Z,31.99
2022-10-20T11:35:33.825Z,32.23
2022-10-20T11:38:31.772Z,32.60
2022-10-20T11:41:04.020Z,32.27
2022-10-20T11:43:33.435Z,32.56
2022-10-20T11:46:08.770Z,32.55
2022-10-20T11:49:01.677Z,32.19
2022-10-20T11:51:32.934Z,32.56
2022-10-20T11:54:20.662Z,32.06
2022-10-20T11:57:00.984Z,31.95
2022-10-20T12:00:03.938Z,31.33
2022-10-20T12:02:56.937Z,31.53
2022-10-20T12:05:59.601Z,32.27
2022-10-20T12:08:45.924Z,31.50
2022-10-20T12:11:49.605Z,31.31
2022-10-20T12:14:44.421Z,31.23
2022-10-20T12:17:39.116Z,31.64
2022-10-20T12:20:22.412Z,32.16
2022-10-20T12:22:53.438Z,32.29
2022-10-20T12:25:27.326Z,31.58
2022-10-20T12:28:20.658Z,30.96
2022-10-20T12:31:02.956Z,31.15
2022-10-20T12:33:42.214Z,31.37
2022-10-20T12:36:19.317Z,30.95
2022-10-20T12:38:53.303Z,30.70
2022-10-20T12:41:30.596Z,30.40
2022-10-20T12:44:01.210Z,30.20
2022-10-20T12:46:31.661Z,30.68
2022-10-20T12:49:07.973Z,30.25
2022-10-20T12:51:48.039Z,30.70
2022-10-20T12:54:43.826Z,29.82
2022-10-20T12:57:38.451Z,30.00
2022-10-20T13:00:27.623Z,29.30
2022-10-20T13:02:57.770Z,30.36
2022-10-20T13:05:26.735Z,29.99
2022-10-20T13:07:56.930Z,29.70
2022-10-20T13:10:31.631Z,29.26
2022-10-20T13:13:03.140Z,30.07
2022-10-20T13:15:37.093Z,29.81
2022-10-20T13:18:16.179Z,29.48
2022-10-20T13:21:03.002Z,29.29
2022-10-20T13:23:39.635Z,29.25
2022-10-20T13:26:27.279Z,28.89
2022-10-20T13:29:01.083Z,28.78
2022-10-20T13:31:36.259Z,28.54
2022-10-20T13:34:22.814Z,29.48
2022-10-20T13:36:56.983Z,29.71
2022-10-20T13:39:39.698Z,29.35
2022-10-20T13:42:45.322Z,29.45
2022-10-20T13:45:25.879Z,29.57
2022-10-20T13:48:32.486Z,29.13
2022-10-20T13:51:10.203Z,28.80
2022-10-20T13:53:41.129Z,28.87
2022-10-20T13:56:19.597Z,29.02
2022-10-20T13:59:05.703Z,29.60
2022-10-20T14:01:36.214Z,29.13
2022-10-20T14:04:37.854Z,29.18
2022-10-20T14:07:13.845Z,29.43
2022-10-20T14:09:46.602Z,29.62
2022-10-20T14:12:27.085Z,30.01
2022-10-20T14:15:01.896Z,29.84
2022-10-20T14:17:30.403Z,30.35
2022-10-20T14:20:10.132Z,30.57
2022-10-20T14:22:43.490Z,31.05
2022-10-20T14:25:12.659Z,30.03
2022-10-20T14:27:40.717Z,29.48
2022-10-20T14:30:15.710Z,28.20
2022-10-20T14:32:46.494Z,27.05
2022-10-20T14:35:28.894Z,26.63
2022-10-20T14:38:04.861Z,26.49
2022-10-20T14:40:37.310Z,27.40
2022-10-20T14:43:14.043Z,27.73
2022-10-20T14:45:52.422Z,25.96
2022-10-20T14:48:21.699Z,25.92
2022-10-20T14:50:50.637Z,25.54
2022-10-20T14:53:32.585Z,23.10
2022-10-20T14:56:03.118Z,22.73
2022-10-20T14:58:38.718Z,22.30
2022-10-20T15:01:20.829Z,25.11
2022-10-20T15:04:03.670Z,25.68
2022-10-20T15:06:32.379Z,27.36
2022-10-20T15:09:02.037Z,29.31
2022-10-20T15:11:32.308Z,29.21
2022-10-20T15:14:00.883Z,30.88
2022-10-20T15:16:47.649Z,31.25
2022-10-20T15:19:21.851Z,32.39
2022-10-20T15:21:52.945Z,33.03
2022-10-20T15:24:21.539Z,34.06
2022-10-20T15:26:49.543Z,34.38
2022-10-20T15:29:17.635Z,35.91
2022-10-20T15:31:45.518Z,35.84
2022-10-20T15:34:16.422Z,36.73
2022-10-20T15:36:47.568Z,36.49
2022-10-20T15:39:20.890Z,38.22
2022-10-20T15:41:51.567Z,37.86
2022-10-20T15:44:22.624Z,38.97
2022-10-20T15:46:55.261Z,38.40
2022-10-20T15:49:23.984Z,38.73
2022-10-20T15:51:51.751Z,39.36
2022-10-20T15:54:21.926Z,39.55
2022-10-20T15:56:50.586Z,41.12
2022-10-20T15:59:18.606Z,40.50
2022-10-20T16:01:46.670Z,41.06
2022-10-20T16:04:22.516Z,40.72
2022-10-20T16:06:57.749Z,40.94
2022-10-20T16:09:28.881Z,40.78
2022-10-20T16:11:56.719Z,41.11
2022-10-20T16:14:24.959Z,41.54
2022-10-20T16:16:53.082Z,42.15
2022-10-20T16:19:20.784Z,42.75
2022-10-20T16:21:48.389Z,42.44
2022-10-20T16:24:16.868Z,43.11
2022-10-20T16:26:44.750Z,43.05
2022-10-20T16:29:12.271Z,43.85
2022-10-20T16:31:41.452Z,43.29
2022-10-20T16:34:09.881Z,43.50
2022-10-20T16:36:38.822Z,43.73
2022-10-20T16:39:07.097Z,44.62
2022-10-20T16:41:35.298Z,43.55
2022-10-20T16:44:02.865Z,44.03
2022-10-20T16:46:32.231Z,45.10
2022-10-20T16:49:00.372Z,44.36
2022-10-20T16:51:28.307Z,44.91
2022-10-20T16:54:00.759Z,45.02
2022-10-20T16:56:30.858Z,45.31
2022-10-20T16:58:59.494Z,45.21
2022-10-20T17:01:27.687Z,44.54
2022-10-20T17:03:56.916Z,45.74
2022-10-20T17:06:26.801Z,45.53
2022-10-20T17:08:55.302Z,45.95
2022-10-20T17:11:29.599Z,45.60
2022-10-20T17:13:59.276Z,45.54
2022-10-20T17:16:30.518Z,45.74
2022-10-20T17:19:00.333Z,46.45
2022-10-20T17:21:29.381Z,45.72
2022-10-20T17:23:58.115Z,45.81
2022-10-20T17:26:30.724Z,45.96
2022-10-20T17:29:00.943Z,46.89
2022-10-20T17:31:30.152Z,48.27
2022-10-20T17:33:59.415Z,48.32
2022-10-20T17:36:32.277Z,47.08
2022-10-20T17:39:04.032Z,46.76
2022-10-20T17:41:34.157Z,47.01
2022-10-20T17:44:04.665Z,48.57
2022-10-20T17:46:34.043Z,49.25
2022-10-20T17:49:02.304Z,48.02
2022-10-20T17:51:33.687Z,48.79
2022-10-20T17:54:05.267Z,49.55
2022-10-20T17:56:38.853Z,48.89
2022-10-20T17:59:08.848Z,49.28
2022-10-20T18:01:41.047Z,49.52
2022-10-20T18:04:12.853Z,49.92
2022-10-20T18:06:42.785Z,50.19
2022-10-20T18:09:14.545Z,49.95
2022-10-20T18:11:48.835Z,49.65
2022-10-20T18:14:18.203Z,49.65
2022-10-20T18:16:48.390Z,50.31
2022-10-20T18:19:18.412Z,49.93
2022-10-20T18:21:47.272Z,50.31
2022-10-20T18:24:17.287Z,49.97
2022-10-20T18:26:46.864Z,50.05
2022-10-20T18:29:16.416Z,50.05
2022-10-20T18:31:45.410Z,51.04
2022-10-20T18:34:18.412Z,51.39
2022-10-20T18:36:47.399Z,52.01
2022-10-20T18:39:21.190Z,51.84
2022-10-20T18:41:53.140Z,51.67
2022-10-20T18:44:21.543Z,52.16
2022-10-20T18:46:51.430Z,51.85
2022-10-20T18:49:21.975Z,50.56
2022-10-20T18:51:52.934Z,51.81
2022-10-20T18:54:23.831Z,52.45
2022-10-20T18:56:53.369Z,50.97
2022-10-20T18:59:23.268Z,51.92
2022-10-20T19:01:51.283Z,50.68
2022-10-20T19:04:19.551Z,50.70
2022-10-20T19:06:53.900Z,51.85
2022-10-20T19:09:23.237Z,51.01
2022-10-20T19:11:51.966Z,52.52
2022-10-20T19:14:20.665Z,53.48
2022-10-20T19:16:50.298Z,53.45
2022-10-20T19:19:18.256Z,53.96
2022-10-20T19:21:46.369Z,53.70
2022-10-20T19:24:18.513Z,53.64
2022-10-20T19:27:02.199Z,53.24
2022-10-20T19:29:42.085Z,53.18
2022-10-20T19:32:10.197Z,54.13
2022-10-20T19:34:40.464Z,53.65
2022-10-20T19:37:09.838Z,53.25
2022-10-20T19:39:46.626Z,53.54
2022-10-20T19:42:19.614Z,53.81
2022-10-20T19:44:48.573Z,55.13
2022-10-20T19:47:17.303Z,55.17
2022-10-20T19:49:45.782Z,53.81
2022-10-20T19:52:14.018Z,53.75
2022-10-20T19:54:44.249Z,53.02
2022-10-20T19:57:13.660Z,51.07
2022-10-20T19:59:41.598Z,51.70
2022-10-20T20:02:11.719Z,52.13
2022-10-20T20:04:43.535Z,52.05
2022-10-20T20:07:11.971Z,53.09
2022-10-20T20:09:41.632Z,53.21
2022-10-20T20:12:09.939Z,53.52
2022-10-20T20:14:38.984Z,53.64
2022-10-20T20:17:10.896Z,53.87
2022-10-20T20:19:42.390Z,52.76
2022-10-20T20:22:12.939Z,52.17
2022-10-20T20:24:46.806Z,52.09
2022-10-20T20:27:21.307Z,52.23
2022-10-20T20:30:04.112Z,51.59
2022-10-20T20:32:33.316Z,51.29
2022-10-20T20:35:02.438Z,52.03
2022-10-20T20:37:30.441Z,51.66
2022-10-20T20:39:58.683Z,52.68
2022-10-20T20:42:26.699Z,51.85
2022-10-20T20:44:54.780Z,53.70
2022-10-20T20:47:22.993Z,53.51
2022-10-20T20:49:50.685Z,52.87
2022-10-20T20:52:18.273Z,54.32
2022-10-20T20:54:46.536Z,53.52
2022-10-20T20:57:14.505Z,52.77
2022-10-20T20:59:45.358Z,52.68
2022-10-20T21:02:13.568Z,53.45
2022-10-20T21:04:42.939Z,53.84
2022-10-20T21:07:11.657Z,53.90
2022-10-20T21:09:39.799Z,54.16
2022-10-20T21:12:07.643Z,53.77
2022-10-20T21:14:35.588Z,53.66
2022-10-20T21:17:03.912Z,53.25
2022-10-20T21:19:31.428Z,53.56
2022-10-20T21:22:01.290Z,53.63
2022-10-20T21:24:29.637Z,53.63
2022-10-20T21:26:57.473Z,52.97
2022-10-20T21:29:25.820Z,53.23
2022-10-20T21:31:55.642Z,53.01
2022-10-20T21:34:24.323Z,52.52
2022-10-20T21:36:52.078Z,51.65
2022-10-20T21:39:20.385Z,50.89
2022-10-20T21:41:50.123Z,50.22
2022-10-20T21:44:18.386Z,51.02
2022-10-20T21:46:49.437Z,51.46
2022-10-20T21:49:20.026Z,52.62
2022-10-20T21:51:50.888Z,52.91
2022-10-20T21:57:09.364Z,52.44
2022-10-20T21:59:37.324Z,52.72
2022-10-20T22:02:05.505Z,53.50
2022-10-20T22:04:37.056Z,54.05
2022-10-20T22:07:07.393Z,53.40
2022-10-20T22:09:35.729Z,52.92
2022-10-20T22:12:09.781Z,53.77
2022-10-20T22:14:43.687Z,52.58
2022-10-20T22:17:16.510Z,52.83
2022-10-20T22:19:47.146Z,53.48
2022-10-20T22:22:16.699Z,53.14
2022-10-20T22:24:47.397Z,52.69
2022-10-20T22:27:31.466Z,52.59
2022-10-20T22:30:08.457Z,51.60
2022-10-20T22:32:42.995Z,52.30
2022-10-20T22:35:16.854Z,51.93
2022-10-20T22:37:45.808Z,52.23
2022-10-20T22:40:17.054Z,51.90
2022-10-20T22:42:46.550Z,53.20
2022-10-20T22:45:19.385Z,52.60
2022-10-20T22:47:49.206Z,51.02
2022-10-20T22:50:22.609Z,51.58
2022-10-20T22:52:51.678Z,51.91
2022-10-20T22:55:22.117Z,50.18
2022-10-20T22:57:52.763Z,50.68
2022-10-20T23:00:25.090Z,50.77
2022-10-20T23:02:57.068Z,51.05
2022-10-20T23:05:27.508Z,51.04
2022-10-20T23:07:59.350Z,52.10
2022-10-20T23:10:30.971Z,52.04
2022-10-20T23:13:01.995Z,52.63
2022-10-20T23:15:32.682Z,52.20
2022-10-20T23:18:01.816Z,54.67
2022-10-20T23:20:31.515Z,54.92
2022-10-20T23:23:02.126Z,54.81
2022-10-20T23:25:32.505Z,55.39
2022-10-20T23:28:01.614Z,54.36
2022-10-20T23:30:30.791Z,53.98
2022-10-20T23:33:01.997Z,53.63
2022-10-20T23:35:31.675Z,52.78
2022-10-20T23:38:03.224Z,52.13
2022-10-20T23:40:33.557Z,52.41
2022-10-20T23:43:09.673Z,51.59
2022-10-20T23:45:39.862Z,52.36
2022-10-20T23:48:10.151Z,51.43
2022-10-20T23:50:39.171Z,51.05
2022-10-20T23:53:08.520Z,52.04
2022-10-20T23:55:40.528Z,51.32
2022-10-20T23:58:10.153Z,51.50
